createdAt,value
2018-03-06T00:00:12.588Z,3.40
2018-03-06T00:02:40.129Z,3.40
2018-03-06T00:05:07.702Z,3.30
2018-03-06T00:07:35.262Z,3.20
2018-03-06T00:10:03.589Z,3.10
2018-03-06T00:12:31.135Z,3.20
2018-03-06T00:14:58.704Z,3.10
2018-03-06T00:17:27.005Z,3.00
2018-03-06T00:19:54.579Z,3.00
2018-03-06T00:22:22.135Z,3.00
2018-03-06T00:24:49.722Z,3.00
2018-03-06T00:27:17.256Z,3.00
2018-03-06T00:29:44.832Z,3.10
2018-03-06T00:32:13.160Z,3.00
2018-03-06T00:34:40.718Z,3.00
2018-03-06T00:37:08.268Z,3.00
2018-03-06T00:39:35.842Z,3.00
2018-03-06T00:42:04.153Z,2.90
2018-03-06T00:44:31.726Z,2.90
2018-03-06T00:47:00.033Z,2.80
2018-03-06T00:49:27.597Z,2.80
2018-03-06T00:51:55.139Z,2.80
2018-03-06T00:54:23.481Z,2.70
2018-03-06T00:56:51.017Z,2.70
2018-03-06T00:59:19.344Z,2.70
2018-03-06T01:01:46.884Z,2.70
2018-03-06T01:04:14.457Z,2.80
2018-03-06T01:06:42.004Z,2.80
2018-03-06T01:09:09.568Z,2.90
2018-03-06T01:11:37.103Z,3.00
2018-03-06T01:14:04.665Z,3.10
2018-03-06T01:16:32.225Z,3.10
2018-03-06T01:18:59.793Z,3.00
2018-03-06T01:21:27.325Z,2.90
2018-03-06T01:23:54.900Z,2.90
2018-03-06T01:26:22.442Z,2.90
2018-03-06T01:28:50.006Z,2.90
2018-03-06T01:31:17.549Z,2.80
2018-03-06T01:33:45.122Z,2.60
2018-03-06T01:36:13.424Z,2.60
2018-03-06T01:38:40.997Z,2.60
2018-03-06T01:41:08.543Z,2.70
2018-03-06T01:43:36.125Z,2.80
2018-03-06T01:46:03.650Z,3.00
2018-03-06T01:48:31.224Z,3.10
2018-03-06T01:50:58.765Z,3.20
2018-03-06T01:53:26.340Z,3.20
2018-03-06T01:55:53.876Z,3.30
2018-03-06T01:58:22.217Z,3.30
2018-03-06T02:00:49.865Z,3.20
2018-03-06T02:03:17.441Z,3.20
2018-03-06T02:05:44.984Z,3.10
2018-03-06T02:08:12.566Z,3.10
2018-03-06T02:10:40.869Z,3.20
2018-03-06T02:13:08.451Z,3.20
2018-03-06T02:15:35.987Z,3.20
2018-03-06T02:18:03.557Z,3.20
2018-03-06T02:20:31.096Z,3.20
2018-03-06T02:22:58.672Z,3.20
2018-03-06T02:25:26.213Z,3.00
2018-03-06T02:27:53.780Z,2.90
2018-03-06T02:30:21.312Z,2.70
2018-03-06T02:35:40.279Z,2.20
2018-03-06T02:38:07.844Z,2.10
2018-03-06T02:40:35.381Z,2.20
2018-03-06T02:43:03.729Z,2.30
2018-03-06T02:45:31.265Z,2.30
2018-03-06T02:47:58.843Z,2.50
2018-03-06T02:50:26.382Z,2.60
2018-03-06T02:52:53.947Z,2.50
2018-03-06T02:55:21.493Z,2.40
2018-03-06T02:57:49.053Z,2.30
2018-03-06T03:00:16.587Z,2.10
2018-03-06T03:02:44.929Z,1.80
2018-03-06T03:05:12.490Z,1.80
2018-03-06T03:07:40.068Z,1.70
2018-03-06T03:10:07.612Z,1.70
2018-03-06T03:12:35.188Z,1.80
2018-03-06T03:15:02.752Z,1.80
2018-03-06T03:17:30.328Z,1.90
2018-03-06T03:19:57.876Z,2.10
2018-03-06T03:22:26.224Z,2.30
2018-03-06T03:24:53.756Z,2.30
2018-03-06T03:27:21.337Z,2.50
2018-03-06T03:29:48.888Z,2.70
2018-03-06T03:32:17.223Z,3.10
2018-03-06T03:34:44.765Z,3.00
2018-03-06T03:37:13.095Z,3.20
2018-03-06T03:39:40.620Z,3.20
2018-03-06T03:42:08.168Z,3.40
2018-03-06T03:44:35.754Z,3.30
2018-03-06T03:47:04.058Z,3.40
2018-03-06T03:49:32.408Z,3.40
2018-03-06T03:51:59.966Z,3.40
2018-03-06T03:54:27.556Z,3.40
2018-03-06T03:56:55.088Z,3.50
2018-03-06T03:59:22.659Z,3.60
2018-03-06T04:01:50.199Z,3.70
2018-03-06T04:04:18.561Z,3.80
2018-03-06T04:06:46.094Z,3.80
2018-03-06T04:09:13.678Z,3.90
2018-03-06T04:11:41.216Z,3.90
2018-03-06T04:14:09.581Z,3.80
2018-03-06T04:16:37.138Z,3.90
2018-03-06T04:19:04.701Z,3.90
2018-03-06T04:21:32.253Z,3.90
2018-03-06T04:23:59.828Z,3.90
2018-03-06T04:26:27.367Z,4.00
2018-03-06T04:28:54.944Z,4.20
2018-03-06T04:31:23.264Z,4.10
2018-03-06T04:33:50.824Z,4.10
2018-03-06T04:36:18.368Z,4.10
2018-03-06T04:38:45.941Z,4.10
2018-03-06T04:41:14.261Z,4.00
2018-03-06T04:43:41.860Z,4.00
2018-03-06T04:46:09.394Z,3.90
2018-03-06T04:48:36.966Z,3.90
2018-03-06T04:51:04.513Z,3.90
2018-03-06T04:53:32.087Z,3.90
2018-03-06T04:55:59.624Z,3.80
2018-03-06T04:58:27.193Z,3.80
2018-03-06T05:00:54.733Z,3.80
2018-03-06T05:03:22.306Z,3.70
2018-03-06T05:05:49.850Z,3.70
2018-03-06T05:08:17.419Z,3.60
2018-03-06T05:10:44.957Z,3.70
2018-03-06T05:13:12.528Z,3.60
2018-03-06T05:15:40.067Z,3.60
2018-03-06T05:18:07.649Z,3.70
2018-03-06T05:20:35.193Z,3.60
2018-03-06T05:23:03.510Z,3.50
2018-03-06T05:25:31.083Z,3.50
2018-03-06T05:27:58.642Z,3.40
2018-03-06T05:30:26.237Z,3.40
2018-03-06T05:32:53.779Z,3.50
2018-03-06T05:35:21.357Z,3.60
2018-03-06T05:37:49.678Z,3.70
2018-03-06T05:40:17.248Z,3.70
2018-03-06T05:42:44.791Z,3.80
2018-03-06T05:45:12.370Z,3.70
2018-03-06T05:47:39.915Z,3.70
2018-03-06T05:50:07.541Z,3.70
2018-03-06T05:52:35.026Z,3.70
2018-03-06T05:55:02.601Z,3.80
2018-03-06T05:57:30.140Z,3.80
2018-03-06T05:59:57.730Z,3.80
2018-03-06T06:02:25.292Z,3.80
2018-03-06T06:04:52.873Z,3.80
2018-03-06T06:07:20.433Z,3.80
2018-03-06T06:09:47.992Z,3.80
2018-03-06T06:12:15.541Z,3.80
2018-03-06T06:14:43.872Z,3.80
2018-03-06T06:17:11.396Z,3.80
2018-03-06T06:19:38.949Z,3.80
2018-03-06T06:22:06.470Z,3.80
2018-03-06T06:24:34.822Z,3.80
2018-03-06T06:27:02.332Z,3.80
2018-03-06T06:29:29.904Z,3.70
2018-03-06T06:31:57.428Z,3.80
2018-03-06T06:34:25.001Z,3.80
2018-03-06T06:36:52.526Z,3.90
2018-03-06T06:39:20.085Z,4.00
2018-03-06T06:41:47.600Z,4.00
2018-03-06T06:44:15.152Z,4.10
2018-03-06T06:46:42.679Z,4.10
2018-03-06T06:49:10.228Z,4.20
2018-03-06T06:51:37.874Z,4.20
2018-03-06T06:54:06.353Z,4.30
2018-03-06T06:56:34.641Z,4.40
2018-03-06T06:59:02.956Z,4.50
2018-03-06T07:01:30.495Z,4.50
2018-03-06T07:03:58.058Z,4.50
2018-03-06T07:06:25.576Z,4.60
2018-03-06T07:08:53.141Z,4.70
2018-03-06T07:11:20.657Z,4.80
2018-03-06T07:13:48.209Z,4.70
2018-03-06T07:16:15.789Z,4.70
2018-03-06T07:18:43.471Z,4.70
2018-03-06T07:21:11.015Z,4.80
2018-03-06T07:23:38.557Z,4.80
2018-03-06T07:26:06.837Z,4.80
2018-03-06T07:28:34.391Z,4.80
2018-03-06T07:31:01.904Z,4.90
2018-03-06T07:33:30.247Z,5.00
2018-03-06T07:35:57.769Z,5.00
2018-03-06T07:38:25.288Z,5.10
2018-03-06T07:40:52.839Z,5.30
2018-03-06T07:43:20.356Z,5.50
2018-03-06T07:45:47.900Z,5.60
2018-03-06T07:48:15.414Z,5.70
2018-03-06T07:50:43.738Z,6.00
2018-03-06T07:53:11.269Z,6.00
2018-03-06T07:55:39.591Z,6.00
2018-03-06T07:58:07.113Z,6.00
2018-03-06T08:00:34.677Z,6.00
2018-03-06T08:03:03.793Z,6.20
2018-03-06T08:05:31.343Z,6.20
2018-03-06T08:07:58.868Z,6.20
2018-03-06T08:10:27.189Z,6.00
2018-03-06T08:12:54.704Z,6.00
2018-03-06T08:15:22.260Z,6.00
2018-03-06T08:17:49.806Z,6.00
2018-03-06T08:20:17.363Z,6.10
2018-03-06T08:22:44.882Z,6.20
2018-03-06T08:25:12.442Z,6.20
2018-03-06T08:27:39.964Z,6.40
2018-03-06T08:30:08.276Z,6.70
2018-03-06T08:32:35.803Z,6.70
2018-03-06T08:35:03.363Z,6.90
2018-03-06T08:37:30.896Z,7.50
2018-03-06T08:39:58.457Z,8.40
2018-03-06T08:42:25.980Z,8.90
2018-03-06T08:44:53.566Z,8.90
2018-03-06T08:47:21.079Z,8.80
2018-03-06T08:49:48.644Z,9.10
2018-03-06T08:52:16.170Z,9.90
2018-03-06T08:54:43.729Z,10.50
2018-03-06T08:57:11.297Z,10.00
2018-03-06T08:59:38.844Z,9.70
2018-03-06T09:02:06.368Z,10.00
2018-03-06T09:04:33.933Z,10.30
2018-03-06T09:07:01.464Z,10.30
2018-03-06T09:09:29.015Z,9.70
2018-03-06T09:11:57.320Z,11.30
2018-03-06T09:14:24.893Z,11.30
2018-03-06T09:16:52.422Z,12.80
2018-03-06T09:19:19.981Z,13.10
2018-03-06T09:21:47.507Z,12.90
2018-03-06T09:24:15.081Z,13.10
2018-03-06T09:26:42.610Z,13.50
2018-03-06T09:29:10.173Z,13.20
2018-03-06T09:31:37.700Z,12.40
2018-03-06T09:34:05.263Z,12.00
2018-03-06T09:36:32.788Z,11.80
2018-03-06T09:39:00.361Z,12.40
2018-03-06T09:41:27.876Z,14.10
2018-03-06T09:43:55.448Z,13.60
2018-03-06T09:46:23.745Z,14.60
2018-03-06T09:48:51.309Z,14.50
2018-03-06T09:51:18.842Z,15.10
2018-03-06T09:53:46.394Z,14.70
2018-03-06T09:56:13.916Z,14.00
2018-03-06T09:58:41.732Z,13.70
2018-03-06T10:01:09.272Z,13.60
2018-03-06T10:03:37.678Z,14.10
2018-03-06T10:06:05.234Z,14.10
2018-03-06T10:08:33.626Z,15.10
2018-03-06T10:11:01.966Z,14.90
2018-03-06T10:13:29.520Z,14.90
2018-03-06T10:15:57.069Z,14.70
2018-03-06T10:18:24.605Z,14.50
2018-03-06T10:20:52.170Z,14.70
2018-03-06T10:23:19.714Z,15.20
2018-03-06T10:25:47.288Z,14.90
2018-03-06T10:28:14.817Z,14.90
2018-03-06T10:30:43.148Z,14.30
2018-03-06T10:33:10.692Z,14.20
2018-03-06T10:35:38.297Z,14.60
2018-03-06T10:38:05.827Z,15.20
2018-03-06T10:40:34.152Z,14.40
2018-03-06T10:43:01.681Z,14.40
2018-03-06T10:45:29.242Z,14.00
2018-03-06T10:47:56.768Z,14.10
2018-03-06T10:50:24.324Z,14.60
2018-03-06T10:52:51.860Z,14.90
2018-03-06T10:55:19.435Z,15.20
2018-03-06T10:57:46.966Z,15.60
2018-03-06T11:00:14.497Z,15.50
2018-03-06T11:02:42.821Z,16.10
2018-03-06T11:05:10.356Z,16.00
2018-03-06T11:07:38.716Z,15.40
2018-03-06T11:10:06.261Z,15.40
2018-03-06T11:12:33.838Z,14.80
2018-03-06T11:15:01.389Z,15.20
2018-03-06T11:17:28.948Z,15.50
2018-03-06T11:19:57.249Z,15.60
2018-03-06T11:22:24.815Z,15.50
2018-03-06T11:24:52.345Z,15.40
2018-03-06T11:27:19.905Z,15.30
2018-03-06T11:29:47.434Z,15.30
2018-03-06T11:32:14.987Z,15.30
2018-03-06T11:34:43.285Z,15.00
2018-03-06T11:37:11.606Z,14.50
2018-03-06T11:39:39.148Z,14.50
2018-03-06T11:42:07.480Z,14.30
2018-03-06T11:44:35.016Z,14.30
2018-03-06T11:47:03.336Z,14.20
2018-03-06T11:49:30.861Z,14.10
2018-03-06T11:51:59.182Z,14.10
2018-03-06T11:54:26.718Z,14.10
2018-03-06T11:56:55.052Z,14.60
2018-03-06T11:59:22.572Z,14.60
2018-03-06T12:01:50.133Z,14.70
2018-03-06T12:04:17.669Z,14.90
2018-03-06T12:06:45.234Z,14.50
2018-03-06T12:09:12.762Z,14.70
2018-03-06T12:11:41.108Z,14.90
2018-03-06T12:14:08.670Z,14.90
2018-03-06T12:16:36.242Z,14.90
2018-03-06T12:19:03.769Z,14.70
2018-03-06T12:21:31.335Z,14.70
2018-03-06T12:23:58.876Z,14.80
2018-03-06T12:26:26.433Z,14.90
2018-03-06T12:28:53.950Z,14.80
2018-03-06T12:31:21.515Z,14.70
2018-03-06T12:33:49.046Z,14.80
2018-03-06T12:36:16.800Z,14.80
2018-03-06T12:38:45.097Z,14.80
2018-03-06T12:41:13.409Z,14.90
2018-03-06T12:43:40.955Z,15.00
2018-03-06T12:46:09.285Z,15.30
2018-03-06T12:48:36.807Z,15.30
2018-03-06T12:51:05.125Z,15.30
2018-03-06T12:53:32.674Z,15.30
2018-03-06T12:56:00.244Z,15.30
2018-03-06T12:58:27.767Z,15.40
2018-03-06T13:00:55.347Z,15.30
2018-03-06T13:03:22.920Z,15.30
2018-03-06T13:05:50.473Z,15.40
2018-03-06T13:08:18.031Z,15.50
2018-03-06T13:10:45.592Z,15.50
2018-03-06T13:13:13.121Z,15.50
2018-03-06T13:15:40.679Z,15.50
2018-03-06T13:18:08.211Z,15.50
2018-03-06T13:20:35.769Z,15.40
2018-03-06T13:23:03.292Z,15.30
2018-03-06T13:25:30.855Z,15.10
2018-03-06T13:27:58.389Z,15.30
2018-03-06T13:30:26.714Z,15.10
2018-03-06T13:32:54.255Z,15.10
2018-03-06T13:35:21.814Z,14.90
2018-03-06T13:37:49.340Z,15.00
2018-03-06T13:40:16.998Z,14.90
2018-03-06T13:42:44.569Z,14.80
2018-03-06T13:45:12.152Z,14.70
2018-03-06T13:47:39.675Z,14.60
2018-03-06T13:50:07.204Z,14.50
2018-03-06T13:52:34.782Z,14.70
2018-03-06T13:55:03.073Z,14.50
2018-03-06T13:57:30.641Z,14.50
2018-03-06T13:59:58.174Z,14.30
2018-03-06T14:02:25.750Z,14.40
2018-03-06T14:04:53.289Z,14.40
2018-03-06T14:07:20.864Z,14.60
2018-03-06T14:09:48.392Z,14.60
2018-03-06T14:12:15.949Z,14.60
2018-03-06T14:14:43.473Z,14.70
2018-03-06T14:17:11.064Z,14.60
2018-03-06T14:19:38.589Z,14.60
2018-03-06T14:22:06.152Z,14.50
2018-03-06T14:24:34.083Z,14.70
2018-03-06T14:27:01.654Z,14.60
2018-03-06T14:29:29.222Z,14.50
2018-03-06T14:31:56.781Z,14.60
2018-03-06T14:34:24.342Z,14.60
2018-03-06T14:36:51.868Z,14.50
2018-03-06T14:39:20.173Z,14.40
2018-03-06T14:41:47.733Z,14.40
2018-03-06T14:44:15.260Z,14.40
2018-03-06T14:46:42.817Z,14.40
2018-03-06T14:49:10.377Z,14.50
2018-03-06T14:51:37.896Z,14.50
2018-03-06T14:54:05.452Z,14.50
2018-03-06T14:56:32.999Z,14.40
2018-03-06T14:59:00.564Z,14.40
2018-03-06T15:01:28.084Z,14.30
2018-03-06T15:03:55.641Z,14.20
2018-03-06T15:06:23.175Z,14.20
2018-03-06T15:08:50.754Z,14.10
2018-03-06T15:11:18.276Z,14.10
2018-03-06T15:13:46.606Z,13.70
2018-03-06T15:16:14.145Z,13.70
2018-03-06T15:18:42.477Z,13.50
2018-03-06T15:21:10.018Z,13.50
2018-03-06T15:23:38.341Z,13.30
2018-03-06T15:26:05.880Z,13.30
2018-03-06T15:28:34.197Z,13.10
2018-03-06T15:31:01.715Z,13.10
2018-03-06T15:33:29.269Z,13.10
2018-03-06T15:35:56.808Z,13.00
2018-03-06T15:38:24.373Z,13.00
2018-03-06T15:40:51.933Z,13.00
2018-03-06T15:43:20.302Z,13.10
2018-03-06T15:45:47.886Z,13.10
2018-03-06T15:48:16.241Z,13.10
2018-03-06T15:50:43.826Z,13.10
2018-03-06T15:53:11.405Z,13.10
2018-03-06T15:55:39.009Z,13.10
2018-03-06T15:58:06.578Z,13.10
2018-03-06T16:00:34.929Z,13.10
2018-03-06T16:03:02.521Z,13.10
2018-03-06T16:05:30.118Z,13.10
2018-03-06T16:07:58.441Z,12.90
2018-03-06T16:10:26.032Z,12.90
2018-03-06T16:12:53.641Z,12.80
2018-03-06T16:15:21.222Z,12.70
2018-03-06T16:17:48.786Z,12.50
2018-03-06T16:20:17.145Z,12.30
2018-03-06T16:22:44.706Z,12.30
2018-03-06T16:25:13.073Z,12.10
2018-03-06T16:27:40.640Z,12.10
2018-03-06T16:30:08.259Z,12.00
2018-03-06T16:32:35.820Z,11.90
2018-03-06T16:35:03.410Z,11.80
2018-03-06T16:37:30.978Z,11.70
2018-03-06T16:39:58.575Z,11.60
2018-03-06T16:42:26.137Z,11.50
2018-03-06T16:44:53.737Z,11.30
2018-03-06T16:47:22.054Z,11.10
2018-03-06T16:49:49.649Z,11.10
2018-03-06T16:52:17.218Z,11.00
2018-03-06T16:54:44.813Z,10.90
2018-03-06T16:57:12.690Z,10.90
2018-03-06T16:59:40.276Z,10.80
2018-03-06T17:02:07.851Z,10.60
2018-03-06T17:04:35.443Z,10.50
2018-03-06T17:07:03.017Z,10.30
2018-03-06T17:09:31.384Z,10.00
2018-03-06T17:11:58.968Z,10.00
2018-03-06T17:14:26.556Z,9.90
2018-03-06T17:16:54.873Z,9.80
2018-03-06T17:19:22.462Z,9.70
2018-03-06T17:21:50.117Z,9.80
2018-03-06T17:24:17.698Z,9.80
2018-03-06T17:26:45.245Z,9.80
2018-03-06T17:29:12.870Z,9.80
2018-03-06T17:31:40.432Z,9.80
2018-03-06T17:34:08.022Z,9.70
2018-03-06T17:36:35.586Z,9.60
2018-03-06T17:39:03.198Z,9.60
2018-03-06T17:41:31.527Z,9.60
2018-03-06T17:43:59.110Z,9.60
2018-03-06T17:46:26.663Z,9.60
2018-03-06T17:48:54.258Z,9.60
2018-03-06T17:51:21.821Z,9.50
2018-03-06T17:53:49.410Z,9.40
2018-03-06T17:56:16.974Z,9.30
2018-03-06T17:58:44.601Z,9.30
2018-03-06T18:01:12.929Z,9.20
2018-03-06T18:03:40.522Z,9.20
2018-03-06T18:06:08.077Z,9.20
2018-03-06T18:08:35.665Z,9.30
2018-03-06T18:11:03.266Z,9.20
2018-03-06T18:13:30.816Z,9.30
2018-03-06T18:15:58.415Z,9.30
2018-03-06T18:18:25.964Z,9.30
2018-03-06T18:20:53.567Z,9.30
2018-03-06T18:23:21.128Z,9.30
2018-03-06T18:25:48.734Z,9.40
2018-03-06T18:28:16.293Z,9.40
2018-03-06T18:30:44.641Z,9.50
2018-03-06T18:33:12.196Z,9.50
2018-03-06T18:35:39.777Z,9.50
2018-03-06T18:38:07.334Z,9.50
2018-03-06T18:40:34.926Z,9.50
2018-03-06T18:43:02.477Z,9.60
2018-03-06T18:45:30.066Z,9.60
2018-03-06T18:47:57.622Z,9.50
2018-03-06T18:50:37.084Z,9.50
2018-03-06T18:53:04.653Z,9.50
2018-03-06T18:55:32.261Z,9.50
2018-03-06T18:58:01.013Z,9.50
2018-03-06T19:03:53.992Z,9.40
2018-03-06T19:06:42.305Z,9.40
2018-03-06T19:09:10.680Z,9.40
2018-03-06T19:11:38.241Z,9.40
2018-03-06T19:14:05.829Z,9.30
2018-03-06T19:16:33.379Z,9.30
2018-03-06T19:19:00.962Z,9.30
2018-03-06T19:21:28.522Z,9.20
2018-03-06T19:23:56.883Z,9.10
2018-03-06T19:26:24.434Z,9.10
2018-03-06T19:28:52.014Z,9.10
2018-03-06T19:31:19.564Z,9.10
2018-03-06T19:33:47.119Z,9.10
2018-03-06T19:36:14.637Z,9.00
2018-03-06T19:38:42.188Z,9.00
2018-03-06T19:41:09.701Z,9.00
2018-03-06T19:43:37.259Z,8.90
2018-03-06T19:46:04.797Z,9.00
2018-03-06T19:48:32.346Z,8.90
2018-03-06T19:50:59.873Z,8.80
2018-03-06T19:53:27.461Z,8.80
2018-03-06T19:55:55.003Z,8.80
2018-03-06T19:58:22.552Z,8.80
2018-03-06T20:00:50.140Z,8.70
2018-03-06T20:03:17.691Z,8.70
2018-03-06T20:05:45.212Z,8.70
2018-03-06T20:08:12.784Z,8.60
2018-03-06T20:10:40.300Z,8.50
2018-03-06T20:13:07.877Z,8.50
2018-03-06T20:15:35.392Z,8.50
2018-03-06T20:18:02.941Z,8.40
2018-03-06T20:20:30.458Z,8.40
2018-03-06T20:22:58.780Z,8.40
2018-03-06T20:25:32.685Z,8.40
2018-03-06T20:28:01.021Z,8.30
2018-03-06T20:30:34.333Z,8.30
2018-03-06T20:33:07.541Z,8.30
2018-03-06T20:35:35.063Z,8.30
2018-03-06T20:38:03.381Z,8.20
2018-03-06T20:40:33.824Z,8.20
2018-03-06T20:43:01.389Z,8.20
2018-03-06T20:45:34.650Z,8.20
2018-03-06T20:48:02.208Z,8.20
2018-03-06T20:50:29.729Z,8.20
2018-03-06T20:53:03.065Z,8.10
2018-03-06T20:55:30.584Z,8.10
2018-03-06T20:57:58.176Z,8.10
2018-03-06T21:00:25.706Z,8.10
2018-03-06T21:02:53.271Z,8.10
2018-03-06T21:05:20.884Z,8.00
2018-03-06T21:07:49.193Z,8.00
2018-03-06T21:10:16.716Z,7.90
2018-03-06T21:12:44.265Z,7.90
2018-03-06T21:15:11.785Z,7.90
2018-03-06T21:17:40.105Z,7.90
2018-03-06T21:20:08.333Z,7.80
2018-03-06T21:22:35.880Z,7.90
2018-03-06T21:25:03.453Z,7.90
2018-03-06T21:27:30.992Z,7.90
2018-03-06T21:29:58.500Z,7.80
2018-03-06T21:32:26.053Z,7.80
2018-03-06T21:34:53.596Z,7.80
2018-03-06T21:37:21.913Z,7.70
2018-03-06T21:39:49.435Z,7.70
2018-03-06T21:42:17.009Z,7.60
2018-03-06T21:44:44.529Z,7.60
2018-03-06T21:47:12.081Z,7.50
2018-03-06T21:49:39.616Z,7.50
2018-03-06T21:52:07.164Z,7.50
2018-03-06T21:54:34.692Z,7.40
2018-03-06T21:57:03.008Z,7.40
2018-03-06T21:59:30.525Z,7.40
2018-03-06T22:01:58.080Z,7.40
2018-03-06T22:04:25.601Z,7.40
2018-03-06T22:06:53.155Z,7.30
2018-03-06T22:09:20.692Z,7.30
2018-03-06T22:11:48.245Z,7.30
2018-03-06T22:14:15.768Z,7.30
2018-03-06T22:16:43.329Z,7.20
2018-03-06T22:19:10.845Z,7.20
2018-03-06T22:21:38.392Z,7.20
2018-03-06T22:24:05.909Z,7.20
2018-03-06T22:26:33.468Z,7.20
2018-03-06T22:29:00.989Z,7.20
2018-03-06T22:31:28.556Z,7.10
2018-03-06T22:33:56.082Z,7.10
2018-03-06T22:36:23.638Z,7.10
2018-03-06T22:38:51.921Z,7.10
2018-03-06T22:41:20.244Z,7.10
2018-03-06T22:43:47.768Z,7.10
2018-03-06T22:46:15.332Z,7.10
2018-03-06T22:48:42.850Z,7.10
2018-03-06T22:51:10.415Z,7.10
2018-03-06T22:53:37.932Z,7.10
2018-03-06T22:56:05.490Z,7.10
2018-03-06T22:58:33.014Z,7.10
2018-03-06T23:01:01.331Z,7.10
2018-03-06T23:03:28.850Z,7.10
2018-03-06T23:05:56.412Z,7.10
2018-03-06T23:08:25.362Z,7.10
2018-03-06T23:10:52.905Z,7.10
2018-03-06T23:13:20.429Z,7.00
2018-03-06T23:15:47.992Z,7.00
2018-03-06T23:18:15.516Z,7.00
2018-03-06T23:20:43.064Z,7.00
2018-03-06T23:23:10.581Z,7.00
2018-03-06T23:25:38.134Z,6.90
2018-03-06T23:28:05.660Z,7.00
2018-03-06T23:30:33.209Z,7.00
2018-03-06T23:33:00.734Z,6.90
2018-03-06T23:35:28.284Z,6.90
2018-03-06T23:37:55.798Z,6.90
2018-03-06T23:40:23.349Z,6.90
2018-03-06T23:42:50.869Z,7.00
2018-03-06T23:45:19.148Z,7.00
2018-03-06T23:47:47.460Z,6.90
2018-03-06T23:50:15.013Z,6.90
2018-03-06T23:52:43.301Z,6.80
2018-03-06T23:55:11.584Z,6.70
2018-03-06T23:57:39.072Z,6.70
